createdAt,value
2023-01-04T00:02:25.325Z,0.03
2023-01-04T00:04:53.704Z,0.15
2023-01-04T00:07:22.293Z,-0.10
2023-01-04T00:09:50.214Z,0.03
2023-01-04T00:12:18.505Z,-0.15
2023-01-04T00:14:47.220Z,0.11
2023-01-04T00:17:15.115Z,-0.32
2023-01-04T00:19:43.391Z,0.12
2023-01-04T00:22:11.505Z,0.16
2023-01-04T00:24:39.343Z,-0.11
2023-01-04T00:27:07.555Z,-0.09
2023-01-04T00:29:35.690Z,-0.08
2023-01-04T00:32:03.976Z,0.18
2023-01-04T00:34:32.136Z,-0.02
2023-01-04T00:37:00.118Z,0.11
2023-01-04T00:39:29.481Z,0.09
2023-01-04T00:42:05.416Z,-0.26
2023-01-04T00:44:35.429Z,0.08
2023-01-04T00:47:05.162Z,-0.38
2023-01-04T00:49:33.705Z,-0.12
2023-01-04T00:52:02.067Z,0.09
2023-01-04T00:54:30.082Z,0.00
2023-01-04T00:56:58.875Z,-0.31
2023-01-04T00:59:27.444Z,-0.34
2023-01-04T01:01:55.699Z,-0.08
2023-01-04T01:04:24.820Z,-0.08
2023-01-04T01:06:53.304Z,-0.19
2023-01-04T01:09:23.183Z,-0.41
2023-01-04T01:11:53.356Z,-0.11
2023-01-04T01:14:25.790Z,-0.12
2023-01-04T01:16:57.185Z,-0.17
2023-01-04T01:19:29.223Z,-0.20
2023-01-04T01:21:58.388Z,-0.30
2023-01-04T01:24:27.713Z,-0.26
2023-01-04T01:26:56.265Z,-0.65
2023-01-04T01:29:25.140Z,-0.28
2023-01-04T01:31:53.543Z,-0.30
2023-01-04T01:34:21.541Z,-0.28
2023-01-04T01:36:50.279Z,-0.23
2023-01-04T01:39:18.749Z,-0.50
2023-01-04T01:41:46.883Z,-0.19
2023-01-04T01:44:42.992Z,-0.20
2023-01-04T01:47:26.707Z,-0.32
2023-01-04T01:49:55.331Z,-0.28
2023-01-04T01:52:35.648Z,-0.35
2023-01-04T01:55:10.084Z,-0.34
2023-01-04T01:57:39.719Z,-0.36
2023-01-04T02:00:14.813Z,-0.38
2023-01-04T02:03:19.596Z,-0.41
2023-01-04T02:05:53.855Z,-0.41
2023-01-04T02:08:24.600Z,-0.42
2023-01-04T02:10:52.635Z,-0.43
2023-01-04T02:13:50.137Z,-0.46
2023-01-04T02:16:52.790Z,-0.50
2023-01-04T02:20:17.185Z,-0.51
2023-01-04T02:23:22.337Z,-0.51
2023-01-04T02:26:27.696Z,-0.55
2023-01-04T02:29:27.683Z,-0.59
2023-01-04T02:32:03.927Z,-1.01
2023-01-04T02:35:04.750Z,-0.70
2023-01-04T02:38:06.271Z,-0.69
2023-01-04T02:41:27.072Z,-0.71
2023-01-04T02:44:30.653Z,-0.91
2023-01-04T02:47:15.234Z,-0.76
2023-01-04T02:50:05.106Z,-0.83
2023-01-04T02:52:34.914Z,-0.79
2023-01-04T02:55:06.382Z,-1.58
2023-01-04T02:58:07.614Z,-0.79
2023-01-04T03:01:24.511Z,-0.75
2023-01-04T03:04:44.364Z,-0.76
2023-01-04T03:07:30.706Z,-0.84
2023-01-04T03:10:24.006Z,-0.85
2023-01-04T03:13:04.267Z,-0.88
2023-01-04T03:15:38.068Z,-1.01
2023-01-04T03:18:34.087Z,-0.94
2023-01-04T03:21:04.584Z,-1.24
2023-01-04T03:23:57.431Z,-1.26
2023-01-04T03:26:51.400Z,-1.07
2023-01-04T03:29:50.400Z,-1.34
2023-01-04T03:32:57.905Z,-1.08
2023-01-04T03:35:38.902Z,-1.47
2023-01-04T03:38:36.654Z,-0.95
2023-01-04T03:41:46.584Z,-0.91
2023-01-04T03:45:07.678Z,-0.86
2023-01-04T03:48:14.644Z,-0.80
2023-01-04T03:50:49.443Z,-0.82
2023-01-04T03:53:18.954Z,-0.83
2023-01-04T03:55:48.637Z,-0.86
2023-01-04T03:58:17.169Z,-0.87
2023-01-04T04:00:47.469Z,-0.79
2023-01-04T04:03:15.532Z,-0.84
2023-01-04T04:06:04.162Z,-0.84
2023-01-04T04:08:32.147Z,-0.87
2023-01-04T04:11:21.501Z,-0.88
2023-01-04T04:13:50.986Z,-1.37
2023-01-04T04:16:19.194Z,-1.05
2023-01-04T04:18:48.257Z,-0.95
2023-01-04T04:21:16.162Z,-1.02
2023-01-04T04:23:44.670Z,-0.96
2023-01-04T04:26:12.646Z,-1.08
2023-01-04T04:28:40.945Z,-0.93
2023-01-04T04:31:09.900Z,-0.87
2023-01-04T04:33:37.968Z,-0.87
2023-01-04T04:36:06.845Z,-0.89
2023-01-04T04:38:35.840Z,-0.90
2023-01-04T04:41:32.932Z,-0.97
2023-01-04T04:44:01.181Z,-0.90
2023-01-04T04:46:29.447Z,-0.94
2023-01-04T04:48:58.043Z,-1.02
2023-01-04T04:51:26.139Z,-1.10
2023-01-04T04:53:54.345Z,-1.09
2023-01-04T04:56:22.480Z,-1.10
2023-01-04T04:58:50.904Z,-1.35
2023-01-04T05:01:19.483Z,-1.17
2023-01-04T05:03:47.912Z,-1.16
2023-01-04T05:06:15.835Z,-1.23
2023-01-04T05:08:44.051Z,-1.29
2023-01-04T05:11:13.755Z,-1.31
2023-01-04T05:13:41.958Z,-1.35
2023-01-04T05:16:10.618Z,-1.49
2023-01-04T05:18:38.860Z,-1.17
2023-01-04T05:21:06.830Z,-1.47
2023-01-04T05:23:34.807Z,-1.19
2023-01-04T05:26:03.969Z,-1.17
2023-01-04T05:28:31.955Z,-1.19
2023-01-04T05:31:00.479Z,-1.54
2023-01-04T05:33:32.213Z,-1.65
2023-01-04T05:36:02.554Z,-1.73
2023-01-04T05:38:31.259Z,-1.39
2023-01-04T05:40:59.347Z,-1.61
2023-01-04T05:43:27.651Z,-1.58
2023-01-04T05:45:57.159Z,-1.62
2023-01-04T05:48:25.691Z,-1.60
2023-01-04T05:50:54.251Z,-1.55
2023-01-04T05:53:22.253Z,-1.57
2023-01-04T05:55:50.326Z,-1.94
2023-01-04T05:58:18.496Z,-1.58
2023-01-04T06:00:46.610Z,-1.85
2023-01-04T06:03:14.986Z,-1.56
2023-01-04T06:05:43.245Z,-1.59
2023-01-04T06:08:11.108Z,-1.76
2023-01-04T06:10:39.349Z,-1.91
2023-01-04T06:13:07.402Z,-1.68
2023-01-04T06:15:41.074Z,-1.85
2023-01-04T06:18:13.343Z,-1.83
2023-01-04T06:20:43.890Z,-1.67
2023-01-04T06:23:12.219Z,-1.68
2023-01-04T06:25:40.133Z,-1.98
2023-01-04T06:28:08.564Z,-1.59
2023-01-04T06:30:36.984Z,-1.45
2023-01-04T06:33:05.085Z,-1.45
2023-01-04T06:35:33.151Z,-1.37
2023-01-04T06:38:01.352Z,-1.37
2023-01-04T06:40:30.556Z,-1.33
2023-01-04T06:42:58.561Z,-1.26
2023-01-04T06:45:27.102Z,-1.15
2023-01-04T06:47:55.073Z,-1.32
2023-01-04T06:50:23.063Z,-1.11
2023-01-04T06:52:51.346Z,-1.42
2023-01-04T06:55:19.334Z,-1.21
2023-01-04T06:57:47.328Z,-1.09
2023-01-04T07:00:16.083Z,-1.12
2023-01-04T07:03:14.633Z,-1.10
2023-01-04T07:05:32.587Z,-0.96
2023-01-04T07:08:07.756Z,-0.85
2023-01-04T07:10:37.257Z,-0.81
2023-01-04T07:13:05.900Z,-0.78
2023-01-04T07:15:38.901Z,-0.96
2023-01-04T07:18:12.316Z,-0.72
2023-01-04T07:20:40.889Z,-0.63
2023-01-04T07:23:09.749Z,-0.56
2023-01-04T07:25:38.242Z,-0.50
2023-01-04T07:28:06.564Z,-0.46
2023-01-04T07:30:34.673Z,-0.38
2023-01-04T07:33:03.008Z,-0.26
2023-01-04T07:35:31.330Z,-0.25
2023-01-04T07:37:59.444Z,-0.13
2023-01-04T07:40:28.289Z,-0.33
2023-01-04T07:42:59.356Z,-0.24
2023-01-04T07:45:27.972Z,-0.17
2023-01-04T07:47:57.821Z,-0.05
2023-01-04T07:50:26.267Z,0.09
2023-01-04T07:52:54.987Z,0.11
2023-01-04T07:55:23.138Z,-0.11
2023-01-04T07:57:54.355Z,0.13
2023-01-04T08:00:22.598Z,0.14
2023-01-04T08:02:50.974Z,0.26
2023-01-04T08:05:19.260Z,0.30
2023-01-04T08:07:47.356Z,0.03
2023-01-04T08:10:15.721Z,0.08
2023-01-04T08:12:43.631Z,0.43
2023-01-04T08:15:12.016Z,0.17
2023-01-04T08:17:40.393Z,0.41
2023-01-04T08:20:09.791Z,0.50
2023-01-04T08:22:37.744Z,0.67
2023-01-04T08:25:07.479Z,0.80
2023-01-04T08:27:35.582Z,0.93
2023-01-04T08:30:05.115Z,0.70
2023-01-04T08:32:33.899Z,0.67
2023-01-04T08:35:01.893Z,0.99
2023-01-04T08:37:31.976Z,0.98
2023-01-04T08:40:00.248Z,0.98
2023-01-04T08:42:31.560Z,1.11
2023-01-04T08:45:01.943Z,1.11
2023-01-04T08:47:32.173Z,0.79
2023-01-04T08:50:06.481Z,0.89
2023-01-04T08:52:37.256Z,0.91
2023-01-04T08:55:12.222Z,0.83
2023-01-04T08:57:41.479Z,0.74
2023-01-04T09:00:13.385Z,1.30
2023-01-04T09:02:41.643Z,1.20
2023-01-04T09:05:10.622Z,1.52
2023-01-04T09:07:50.612Z,1.66
2023-01-04T09:10:18.934Z,2.01
2023-01-04T09:12:47.970Z,2.27
2023-01-04T09:15:16.863Z,2.27
2023-01-04T09:18:20.662Z,2.53
2023-01-04T09:20:35.283Z,2.67
2023-01-04T09:23:04.359Z,2.83
2023-01-04T09:25:32.409Z,2.00
2023-01-04T09:28:01.333Z,2.74
2023-01-04T09:30:31.894Z,2.66
2023-01-04T09:32:59.913Z,2.70
2023-01-04T09:35:28.225Z,2.86
2023-01-04T09:37:56.922Z,2.38
2023-01-04T09:40:34.540Z,2.60
2023-01-04T09:43:20.354Z,2.69
2023-01-04T09:45:56.935Z,2.78
2023-01-04T09:48:29.479Z,2.66
2023-01-04T09:51:05.637Z,2.70
2023-01-04T09:54:02.404Z,2.70
2023-01-04T09:56:36.270Z,2.85
2023-01-04T09:59:14.531Z,2.89
2023-01-04T10:01:53.938Z,3.05
2023-01-04T10:04:41.710Z,2.98
2023-01-04T10:07:29.467Z,3.44
2023-01-04T10:09:58.440Z,3.45
2023-01-04T10:12:57.908Z,3.41
2023-01-04T10:15:37.392Z,3.78
2023-01-04T10:19:29.683Z,3.83
2023-01-04T10:21:45.050Z,4.07
2023-01-04T10:24:56.063Z,4.00
2023-01-04T10:27:53.620Z,4.07
2023-01-04T10:30:40.975Z,4.23
2023-01-04T10:33:12.973Z,4.33
2023-01-04T10:35:46.359Z,4.21
2023-01-04T10:38:24.924Z,4.13
2023-01-04T10:40:54.831Z,3.68
2023-01-04T10:44:12.209Z,4.34
2023-01-04T10:46:39.508Z,4.23
2023-01-04T10:49:21.545Z,4.24
2023-01-04T10:52:23.385Z,4.30
2023-01-04T10:55:11.212Z,4.37
2023-01-04T10:57:59.973Z,4.35
2023-01-04T11:00:44.293Z,4.31
2023-01-04T11:03:28.678Z,4.46
2023-01-04T11:06:35.355Z,4.51
2023-01-04T11:09:16.288Z,4.77
2023-01-04T11:11:48.715Z,4.80
2023-01-04T11:14:17.289Z,4.52
2023-01-04T11:16:51.025Z,4.28
2023-01-04T11:19:19.179Z,4.55
2023-01-04T11:22:22.735Z,4.62
2023-01-04T11:25:34.030Z,4.70
2023-01-04T11:28:23.360Z,4.86
2023-01-04T11:31:09.959Z,4.87
2023-01-04T11:34:02.344Z,4.82
2023-01-04T11:36:33.521Z,5.13
2023-01-04T11:39:02.435Z,5.02
2023-01-04T11:41:31.240Z,4.64
2023-01-04T11:44:05.110Z,5.00
2023-01-04T11:46:35.165Z,5.06
2023-01-04T11:49:03.376Z,5.15
2023-01-04T11:51:31.774Z,5.23
2023-01-04T11:54:05.320Z,5.20
2023-01-04T11:56:37.666Z,5.17
2023-01-04T11:59:25.533Z,4.89
2023-01-04T12:03:00.827Z,5.08
2023-01-04T12:05:29.616Z,5.23
2023-01-04T12:07:59.487Z,5.16
2023-01-04T12:10:29.268Z,4.79
2023-01-04T12:13:01.319Z,5.05
2023-01-04T12:15:56.151Z,4.97
2023-01-04T12:18:30.798Z,4.98
2023-01-04T12:21:01.853Z,4.63
2023-01-04T12:23:30.444Z,4.79
2023-01-04T12:25:58.935Z,4.57
2023-01-04T12:28:44.578Z,4.80
2023-01-04T12:31:22.528Z,4.83
2023-01-04T12:33:53.467Z,4.89
2023-01-04T12:36:39.541Z,4.87
2023-01-04T12:39:17.114Z,4.94
2023-01-04T12:42:05.209Z,4.82
2023-01-04T12:44:39.376Z,4.81
2023-01-04T12:47:38.232Z,4.72
2023-01-04T12:50:15.668Z,4.74
2023-01-04T12:53:29.323Z,4.64
2023-01-04T12:55:45.865Z,4.60
2023-01-04T12:58:49.676Z,4.55
2023-01-04T13:01:28.816Z,4.22
2023-01-04T13:04:38.960Z,4.50
2023-01-04T13:07:32.006Z,4.45
2023-01-04T13:10:20.302Z,4.48
2023-01-04T13:13:10.786Z,4.50
2023-01-04T13:16:23.433Z,4.47
2023-01-04T13:18:57.998Z,4.18
2023-01-04T13:21:33.720Z,4.43
2023-01-04T13:24:20.481Z,4.40
2023-01-04T13:26:49.870Z,4.42
2023-01-04T13:29:22.700Z,4.44
2023-01-04T13:32:12.920Z,4.13
2023-01-04T13:34:47.431Z,4.34
2023-01-04T13:38:00.779Z,4.28
2023-01-04T13:40:39.253Z,4.14
2023-01-04T13:43:54.506Z,4.04
2023-01-04T13:46:27.161Z,3.96
2023-01-04T13:49:01.635Z,4.19
2023-01-04T13:51:38.233Z,4.20
2023-01-04T13:54:19.833Z,3.96
2023-01-04T13:56:55.033Z,3.94
2023-01-04T13:59:24.047Z,4.21
2023-01-04T14:01:53.510Z,4.22
2023-01-04T14:04:31.658Z,4.20
2023-01-04T14:07:01.968Z,4.21
2023-01-04T14:09:37.009Z,4.00
2023-01-04T14:12:21.950Z,4.19
2023-01-04T14:15:04.912Z,4.14
2023-01-04T14:17:51.633Z,4.07
2023-01-04T14:20:25.427Z,4.05
2023-01-04T14:22:59.317Z,4.06
2023-01-04T14:25:49.257Z,4.06
2023-01-04T14:28:36.205Z,3.98
2023-01-04T14:31:05.401Z,4.00
2023-01-04T14:33:46.285Z,4.01
2023-01-04T14:36:30.768Z,3.99
2023-01-04T14:39:05.797Z,3.54
2023-01-04T14:42:05.159Z,3.78
2023-01-04T14:44:36.245Z,3.85
2023-01-04T14:47:06.893Z,3.75
2023-01-04T14:49:35.874Z,3.77
2023-01-04T14:52:11.625Z,3.94
2023-01-04T14:54:40.117Z,3.92
2023-01-04T14:57:10.356Z,3.96
2023-01-04T14:59:38.858Z,3.72
2023-01-04T15:02:13.120Z,4.02
2023-01-04T15:04:41.748Z,4.07
2023-01-04T15:07:41.047Z,4.03
2023-01-04T15:10:27.800Z,3.83
2023-01-04T15:13:00.874Z,4.05
2023-01-04T15:15:29.367Z,4.09
2023-01-04T15:17:57.606Z,4.11
2023-01-04T15:20:25.983Z,4.10
2023-01-04T15:22:54.481Z,4.04
2023-01-04T15:25:22.676Z,3.87
2023-01-04T15:27:51.046Z,4.16
2023-01-04T15:30:20.309Z,4.16
2023-01-04T15:32:48.487Z,3.87
2023-01-04T15:35:17.513Z,4.16
2023-01-04T15:37:47.769Z,4.14
2023-01-04T15:40:19.063Z,4.13
2023-01-04T15:42:59.876Z,4.14
2023-01-04T15:45:37.635Z,4.21
2023-01-04T15:48:08.564Z,3.36
2023-01-04T15:50:40.960Z,3.90
2023-01-04T15:53:10.516Z,3.98
2023-01-04T15:55:39.038Z,3.98
2023-01-04T15:58:07.404Z,4.07
2023-01-04T16:00:35.848Z,4.23
2023-01-04T16:03:06.168Z,4.25
2023-01-04T16:05:36.060Z,4.23
2023-01-04T16:08:05.379Z,4.27
2023-01-04T16:10:33.699Z,4.24
2023-01-04T16:13:02.121Z,4.23
2023-01-04T16:15:30.725Z,4.26
2023-01-04T16:17:59.130Z,4.40
2023-01-04T16:20:27.925Z,4.44
2023-01-04T16:22:56.045Z,4.42
2023-01-04T16:25:24.404Z,4.24
2023-01-04T16:27:52.643Z,4.56
2023-01-04T16:30:25.860Z,4.59
2023-01-04T16:32:57.914Z,4.32
2023-01-04T16:35:26.479Z,4.57
2023-01-04T16:37:54.700Z,4.63
2023-01-04T16:40:24.695Z,4.38
2023-01-04T16:42:53.260Z,4.64
2023-01-04T16:45:21.385Z,4.62
2023-01-04T16:47:50.583Z,4.74
2023-01-04T16:50:19.101Z,4.30
2023-01-04T16:52:47.781Z,4.74
2023-01-04T16:55:21.806Z,4.72
2023-01-04T16:57:53.093Z,4.84
2023-01-04T17:00:21.726Z,4.80
2023-01-04T17:02:50.018Z,4.86
2023-01-04T17:05:18.871Z,4.89
2023-01-04T17:07:47.434Z,4.61
2023-01-04T17:10:15.519Z,4.88
2023-01-04T17:12:47.449Z,4.92
2023-01-04T17:18:07.397Z,4.98
2023-01-04T17:20:35.932Z,4.93
2023-01-04T17:23:05.347Z,4.93
2023-01-04T17:25:33.904Z,4.66
2023-01-04T17:28:02.159Z,4.93
2023-01-04T17:30:30.759Z,4.61
2023-01-04T17:32:59.683Z,5.09
2023-01-04T17:35:28.151Z,5.28
2023-01-04T17:37:57.788Z,5.27
2023-01-04T17:40:27.949Z,5.36
2023-01-04T17:42:56.651Z,5.45
2023-01-04T17:45:26.038Z,5.35
2023-01-04T17:47:55.050Z,5.34
2023-01-04T17:50:23.436Z,5.29
2023-01-04T17:52:52.111Z,4.99
2023-01-04T17:55:22.861Z,5.02
2023-01-04T17:57:51.438Z,4.94
2023-01-04T18:00:20.783Z,5.10
2023-01-04T18:02:49.957Z,4.88
2023-01-04T18:05:18.446Z,4.95
2023-01-04T18:07:47.181Z,5.07
2023-01-04T18:10:27.202Z,4.73
2023-01-04T18:13:02.234Z,5.00
2023-01-04T18:15:31.046Z,4.98
2023-01-04T18:18:00.181Z,5.01
2023-01-04T18:20:29.020Z,5.12
2023-01-04T18:22:57.936Z,5.14
2023-01-04T18:25:26.545Z,5.18
2023-01-04T18:27:55.104Z,5.19
2023-01-04T18:30:24.236Z,5.23
2023-01-04T18:32:52.715Z,5.24
2023-01-04T18:35:21.443Z,5.26
2023-01-04T18:37:50.064Z,5.17
2023-01-04T18:40:18.356Z,5.22
2023-01-04T18:42:50.711Z,5.24
2023-01-04T18:45:20.835Z,5.28
2023-01-04T18:47:48.987Z,5.21
2023-01-04T18:50:18.491Z,4.94
2023-01-04T18:52:46.885Z,5.30
2023-01-04T18:55:15.768Z,5.23
2023-01-04T18:57:43.863Z,5.01
2023-01-04T19:00:13.287Z,5.09
2023-01-04T19:02:41.833Z,5.09
2023-01-04T19:05:12.412Z,4.82
2023-01-04T19:07:41.202Z,4.84
2023-01-04T19:10:12.809Z,5.02
2023-01-04T19:12:41.064Z,4.94
2023-01-04T19:15:10.963Z,4.96
2023-01-04T19:17:39.381Z,4.68
2023-01-04T19:20:09.958Z,4.97
2023-01-04T19:22:39.125Z,4.95
2023-01-04T19:25:08.690Z,4.89
2023-01-04T19:27:37.130Z,4.91
2023-01-04T19:30:06.868Z,4.71
2023-01-04T19:32:35.271Z,4.99
2023-01-04T19:35:04.523Z,4.75
2023-01-04T19:37:34.248Z,4.77
2023-01-04T19:40:03.327Z,5.04
2023-01-04T19:42:32.448Z,5.10
2023-01-04T19:45:01.685Z,4.92
2023-01-04T19:47:30.516Z,5.07
2023-01-04T19:50:00.285Z,5.08
2023-01-04T19:52:31.594Z,5.05
2023-01-04T19:55:01.317Z,4.69
2023-01-04T19:57:30.544Z,5.11
2023-01-04T19:59:59.267Z,5.14
2023-01-04T20:02:28.226Z,5.20
2023-01-04T20:04:57.506Z,5.22
2023-01-04T20:07:27.194Z,4.98
2023-01-04T20:09:55.760Z,5.26
2023-01-04T20:12:24.402Z,5.30
2023-01-04T20:14:53.137Z,5.33
2023-01-04T20:17:23.243Z,5.30
2023-01-04T20:19:51.940Z,5.35
2023-01-04T20:22:20.920Z,5.41
2023-01-04T20:24:49.598Z,5.29
2023-01-04T20:27:18.415Z,5.49
2023-01-04T20:29:48.029Z,5.51
2023-01-04T20:32:17.563Z,5.51
2023-01-04T20:34:45.841Z,5.37
2023-01-04T20:37:14.339Z,5.52
2023-01-04T20:39:43.142Z,5.55
2023-01-04T20:42:30.931Z,5.60
2023-01-04T20:45:02.365Z,5.58
2023-01-04T20:47:31.723Z,5.66
2023-01-04T20:50:00.637Z,5.65
2023-01-04T20:52:29.086Z,5.65
2023-01-04T20:54:57.648Z,5.64
2023-01-04T20:57:26.467Z,5.67
2023-01-04T20:59:56.101Z,5.64
2023-01-04T21:02:25.158Z,5.65
2023-01-04T21:04:55.988Z,5.44
2023-01-04T21:07:25.881Z,5.49
2023-01-04T21:09:54.563Z,5.30
2023-01-04T21:12:22.798Z,5.41
2023-01-04T21:14:51.729Z,5.24
2023-01-04T21:17:20.164Z,5.47
2023-01-04T21:19:50.631Z,5.47
2023-01-04T21:22:19.509Z,5.42
2023-01-04T21:24:47.652Z,5.47
2023-01-04T21:27:16.534Z,5.43
2023-01-04T21:29:45.261Z,5.37
2023-01-04T21:32:13.607Z,5.41
2023-01-04T21:34:41.853Z,5.42
2023-01-04T21:37:11.807Z,5.42
2023-01-04T21:39:40.033Z,5.44
2023-01-04T21:42:10.815Z,5.49
2023-01-04T21:44:39.337Z,5.32
2023-01-04T21:47:07.688Z,5.09
2023-01-04T21:49:37.013Z,5.57
2023-01-04T21:52:05.631Z,5.39
2023-01-04T21:54:34.106Z,5.62
2023-01-04T21:57:02.580Z,5.64
2023-01-04T21:59:31.560Z,5.40
2023-01-04T22:02:00.341Z,5.73
2023-01-04T22:04:28.900Z,5.71
2023-01-04T22:06:57.955Z,5.46
2023-01-04T22:09:27.079Z,5.76
2023-01-04T22:11:55.526Z,5.76
2023-01-04T22:14:24.810Z,5.85
2023-01-04T22:16:53.220Z,5.74
2023-01-04T22:19:22.816Z,5.76
2023-01-04T22:21:51.345Z,5.54
2023-01-04T22:24:20.397Z,5.75
2023-01-04T22:26:50.823Z,5.51
2023-01-04T22:29:20.860Z,5.81
2023-01-04T22:31:49.945Z,5.84
2023-01-04T22:34:18.757Z,5.71
2023-01-04T22:36:47.485Z,5.93
2023-01-04T22:39:15.626Z,5.69
2023-01-04T22:41:44.533Z,5.74
2023-01-04T22:44:13.285Z,5.96
2023-01-04T22:46:41.642Z,5.99
2023-01-04T22:49:10.593Z,6.02
2023-01-04T22:51:41.687Z,6.05
2023-01-04T22:54:11.167Z,6.08
2023-01-04T22:56:39.615Z,6.11
2023-01-04T22:59:10.176Z,6.13
2023-01-04T23:01:38.888Z,6.17
2023-01-04T23:04:07.274Z,6.17
2023-01-04T23:06:37.791Z,6.08
2023-01-04T23:09:08.039Z,5.89
2023-01-04T23:11:37.709Z,5.89
2023-01-04T23:14:08.919Z,5.97
2023-01-04T23:16:37.722Z,5.87
2023-01-04T23:19:09.289Z,5.87
2023-01-04T23:21:38.130Z,5.93
2023-01-04T23:24:07.206Z,5.98
2023-01-04T23:26:35.837Z,5.97
2023-01-04T23:29:04.456Z,5.99
2023-01-04T23:31:34.175Z,5.73
2023-01-04T23:34:05.413Z,5.97
2023-01-04T23:36:38.149Z,5.74
2023-01-04T23:39:15.081Z,5.95
2023-01-04T23:41:47.686Z,5.62
2023-01-04T23:44:34.125Z,5.95
2023-01-04T23:49:38.192Z,5.95
2023-01-04T23:52:07.685Z,5.99
2023-01-04T23:54:36.236Z,6.00
2023-01-04T23:57:04.936Z,6.00
2023-01-04T23:59:33.668Z,6.03
